Nunda, South Dakota
Current Conditions -  °F | °C
As of 5:15 AM on Tuesday 21 Oct 2014 (Local Time) from KMDS Reporting Station
Clear Clear  
Wind Chill: 39°   Ceiling: Unl
Heat Index: 43°   Visibility: 10mi
Dew Point: 37°   Wind: 6mph
Humidity: 81%   Direction: 160°SSE
Pressure: 30.07"   Gusts: NA
Location:  44.16°N, 97.02°W
Report Text: KMDS 211015Z AUTO 16005KT 10SM CLR 06/03 A3007 RMK AO2
Loading
Personal Weather Stations






























Interactive Weather Map
Tropical Storm Tracking
New forecast layout! Learn more

10-Day Weather Forecast

Advertisements
Track Severe Weather on mobile